Time;durP1;ratioP1;P1;durP2;ratioP2;P2;SDS_P1;SDS_P2;PMS_P1;PMS_P2;Temp;Humidity;BMP_temperature;BMP_pressure;BME280_temperature;BME280_humidity;BME280_pressure;Samples;Min_cycle;Max_cycle;Signal;HPM_P1;HPM_P2
2022/06/06 00:01:00;;;;;;;15.20;11.82;;;22.10;58.70;;;;;;5079016;28;20028;-56
2022/06/06 00:03:30;;;;;;;15.25;12.02;;;22.10;58.60;;;;;;5079535;28;20103;-57
2022/06/06 00:05:55;;;;;;;16.27;12.05;;;22.10;58.60;;;;;;5095998;28;20023;-53
2022/06/06 00:08:21;;;;;;;14.32;11.13;;;22.10;58.50;;;;;;5096445;28;20012;-57
2022/06/06 00:10:47;;;;;;;17.50;11.30;;;22.10;59.10;;;;;;5078385;28;20079;-54
2022/06/06 00:13:14;;;;;;;18.58;11.75;;;22.10;58.50;;;;;;5062873;28;20058;-56
2022/06/06 00:15:40;;;;;;;18.50;12.18;;;22.10;58.40;;;;;;5096587;28;20031;-57
2022/06/06 00:18:06;;;;;;;14.73;11.48;;;22.10;58.30;;;;;;5096805;28;20379;-58
2022/06/06 00:20:33;;;;;;;15.32;11.40;;;22.10;58.40;;;;;;5096049;28;20036;-55
2022/06/06 00:22:59;;;;;;;14.75;12.00;;;22.10;58.20;;;;;;5078095;28;20078;-57
2022/06/06 00:25:25;;;;;;;13.90;11.05;;;22.10;58.20;;;;;;5095676;28;20553;-55
2022/06/06 00:27:51;;;;;;;15.88;11.23;;;22.10;58.20;;;;;;5096582;28;20024;-56
2022/06/06 00:30:16;;;;;;;16.33;11.93;;;22.10;58.20;;;;;;5096307;28;20061;-57
2022/06/06 00:35:27;;;;;;;13.75;10.68;;;22.10;58.10;;;;;;5095297;28;20043;-58
2022/06/06 00:37:56;;;;;;;15.23;10.65;;;22.10;58.10;;;;;;5096124;28;20024;-59
2022/06/06 00:40:22;;;;;;;14.00;10.32;;;22.10;58.10;;;;;;5095256;28;20016;-58
2022/06/06 00:42:48;;;;;;;15.45;11.13;;;22.10;58.00;;;;;;5096067;28;20027;-58
2022/06/06 00:45:25;;;;;;;14.73;10.48;;;22.10;58.00;;;;;;5096572;28;20012;-59
2022/06/06 00:47:53;;;;;;;13.77;10.38;;;22.10;58.00;;;;;;5096874;28;20016;-59
2022/06/06 00:50:24;;;;;;;12.77;10.80;;;22.10;58.00;;;;;;5097180;28;20098;-59
2022/06/06 00:52:50;;;;;;;;;;;22.10;58.50;;;;;;5079949;28;20024;-58
2022/06/06 00:55:26;;;;;;;14.27;10.13;;;22.10;57.90;;;;;;5097414;28;20362;-59
2022/06/06 00:58:00;;;;;;;13.60;10.55;;;22.10;57.90;;;;;;5080360;28;20035;-60
2022/06/06 01:00:26;;;;;;;15.07;9.77;;;22.10;57.80;;;;;;5097138;28;20031;-58
2022/06/06 01:02:53;;;;;;;11.88;9.60;;;22.00;57.70;;;;;;5080087;28;20013;-59
2022/06/06 01:05:19;;;;;;;9.95;8.75;;;22.10;57.70;;;;;;5079031;28;20020;-58
2022/06/06 01:07:45;;;;;;;11.40;9.45;;;22.10;57.70;;;;;;5098221;28;20012;-59
2022/06/06 01:10:11;;;;;;;11.43;9.18;;;22.10;57.60;;;;;;5077284;28;20012;-57
2022/06/06 01:12:36;;;;;;;12.63;9.43;;;22.00;57.50;;;;;;5075621;28;20024;-55
2022/06/06 01:15:05;;;;;;;14.07;9.30;;;22.00;57.40;;;;;;5093504;28;20019;-54
2022/06/06 01:17:52;;;;;;;11.52;8.57;;;22.00;57.50;;;;;;5092794;28;20034;-58
2022/06/06 01:20:28;;;;;;;11.52;8.98;;;22.00;57.30;;;;;;5093513;28;20024;-57
2022/06/06 01:23:21;;;;;;;12.13;8.45;;;22.00;57.20;;;;;;5093453;28;20111;-61
2022/06/06 01:26:03;;;;;;;11.30;8.02;;;22.00;57.00;;;;;;5096329;28;20020;-59
2022/06/06 01:28:48;;;;;;;11.15;7.88;;;22.00;56.80;;;;;;5063050;28;20015;-59
2022/06/06 01:31:22;;;;;;;10.45;7.00;;;22.00;56.80;;;;;;5095871;28;20023;-59
2022/06/06 01:33:50;;;;;;;11.32;7.88;;;22.00;56.70;;;;;;5078771;28;20016;-58
2022/06/06 01:36:16;;;;;;;12.07;7.88;;;22.00;56.60;;;;;;5096648;28;20374;-60
2022/06/06 01:38:41;;;;;;;12.50;7.88;;;22.00;56.50;;;;;;5077253;28;20103;-58
2022/06/06 01:41:08;;;;;;;12.77;7.85;;;22.00;56.30;;;;;;5058182;28;20414;-59
2022/06/06 01:43:57;;;;;;;10.65;7.28;;;22.00;56.30;;;;;;5058806;28;20058;-58
2022/06/06 01:46:26;;;;;;;9.75;7.05;;;22.00;56.20;;;;;;5075240;28;20016;-59
2022/06/06 01:48:52;;;;;;;9.85;7.30;;;22.00;56.10;;;;;;5075273;28;20008;-59
2022/06/06 01:51:25;;;;;;;9.60;6.93;;;22.00;56.10;;;;;;5093255;28;20026;-58
2022/06/06 01:53:52;;;;;;;9.45;6.78;;;22.00;56.10;;;;;;5059108;28;20039;-58
2022/06/06 01:56:20;;;;;;;10.40;6.97;;;22.00;56.00;;;;;;5093266;28;20016;-59
2022/06/06 01:58:46;;;;;;;8.18;5.75;;;22.00;56.00;;;;;;5093271;28;20012;-58
2022/06/06 02:01:12;;;;;;;10.75;6.00;;;22.00;56.00;;;;;;5059133;28;20050;-59
2022/06/06 02:03:38;;;;;;;8.45;6.15;;;22.00;55.90;;;;;;5093798;28;20394;-59
2022/06/06 02:06:04;;;;;;;10.90;7.13;;;22.00;55.90;;;;;;5093210;28;20005;-59
2022/06/06 02:08:31;;;;;;;11.85;6.40;;;22.00;55.70;;;;;;5093250;28;20012;-60
2022/06/06 02:10:57;;;;;;;9.57;6.35;;;22.00;56.20;;;;;;5094224;28;20023;-60
2022/06/06 02:13:23;;;;;;;9.73;5.85;;;22.00;55.60;;;;;;5076925;28;20442;-60
2022/06/06 02:15:49;;;;;;;11.50;6.03;;;22.00;55.60;;;;;;5059212;28;20074;-60
2022/06/06 02:18:16;;;;;;;8.07;5.80;;;22.00;55.50;;;;;;5076439;28;20012;-60
2022/06/06 02:20:41;;;;;;;7.70;5.63;;;22.00;55.50;;;;;;5094112;28;20056;-59
2022/06/06 02:23:08;;;;;;;8.10;5.75;;;21.90;55.40;;;;;;5093692;28;20113;-60
2022/06/06 02:25:34;;;;;;;6.97;4.75;;;21.90;55.40;;;;;;5075537;28;20024;-59
2022/06/06 02:28:01;;;;;;;10.10;5.13;;;21.90;55.40;;;;;;5095099;28;20024;-60
2022/06/06 02:30:30;;;;;;;7.97;5.13;;;21.90;55.30;;;;;;5097443;28;20091;-59
2022/06/06 02:32:55;;;;;;;8.95;5.45;;;21.90;55.30;;;;;;5097682;28;20141;-59
2022/06/06 02:35:23;;;;;;;7.35;5.07;;;21.90;55.20;;;;;;5062828;28;20016;-59
2022/06/06 02:37:49;;;;;;;10.93;4.57;;;21.90;55.20;;;;;;5097409;28;20020;-59
2022/06/06 02:40:17;;;;;;;7.93;5.05;;;21.90;55.10;;;;;;5097271;28;20380;-60
2022/06/06 02:42:43;;;;;;;6.80;4.53;;;21.90;55.00;;;;;;5097568;28;20015;-61
2022/06/06 02:45:18;;;;;;;6.53;4.32;;;21.90;54.90;;;;;;5097601;28;20015;-59
2022/06/06 02:47:46;;;;;;;5.03;3.92;;;21.90;54.90;;;;;;5097809;28;20042;-59
2022/06/06 02:50:12;;;;;;;5.72;3.90;;;21.90;54.80;;;;;;5097420;28;20009;-59
2022/06/06 02:52:58;;;;;;;8.45;4.65;;;21.90;54.80;;;;;;5097470;28;20046;-60
2022/06/06 02:55:40;;;;;;;6.05;3.97;;;21.90;54.70;;;;;;5097643;28;20074;-59
2022/06/06 02:58:06;;;;;;;8.63;4.32;;;21.90;54.70;;;;;;5079468;28;20020;-59
2022/06/06 03:00:33;;;;;;;7.20;3.88;;;21.90;54.60;;;;;;5097225;28;20031;-59
2022/06/06 03:02:59;;;;;;;5.97;3.72;;;21.90;54.40;;;;;;5096975;28;20012;-60
2022/06/06 03:05:39;;;;;;;8.60;4.18;;;21.90;54.50;;;;;;5097053;28;20423;-62
2022/06/06 03:08:11;;;;;;;7.35;3.53;;;21.80;54.30;;;;;;5096752;28;20012;-59
2022/06/06 03:11:07;;;;;;;5.75;3.60;;;21.80;54.20;;;;;;5078564;28;20016;-61
2022/06/06 03:13:36;;;;;;;5.47;3.00;;;21.80;54.10;;;;;;5096155;28;20020;-59
2022/06/06 03:22:39;;;;;;;5.60;3.22;;;21.80;53.80;;;;;;5096007;28;20139;-58
2022/06/06 03:25:16;;;;;;;5.63;3.10;;;21.80;53.70;;;;;;4994030;28;20030;-59
2022/06/06 03:27:57;;;;;;;3.35;2.95;;;21.80;53.70;;;;;;4994848;28;20101;-60
2022/06/06 03:30:53;;;;;;;7.10;3.00;;;21.80;53.60;;;;;;4995282;28;20038;-59
2022/06/06 03:33:57;;;;;;;4.07;2.75;;;21.80;53.50;;;;;;4981395;28;20077;-58
2022/06/06 03:36:46;;;;;;;5.35;2.88;;;21.80;53.40;;;;;;5001245;28;20045;-58
2022/06/06 03:39:30;;;;;;;4.18;2.63;;;21.80;53.30;;;;;;5013732;28;20021;-54
2022/06/06 03:42:33;;;;;;;6.43;2.70;;;21.70;53.30;;;;;;5014955;28;20026;-58
2022/06/06 03:45:17;;;;;;;4.68;2.53;;;21.70;53.20;;;;;;4995504;28;20021;-58
2022/06/06 03:47:45;;;;;;;4.72;2.38;;;21.70;53.10;;;;;;4995112;28;20046;-57
2022/06/06 03:51:03;;;;;;;3.78;2.58;;;21.70;53.00;;;;;;4995235;28;20026;-59
2022/06/06 03:53:50;;;;;;;4.97;2.50;;;21.70;53.00;;;;;;4937171;29;20088;-58
2022/06/06 03:56:29;;;;;;;5.95;2.90;;;21.80;52.80;;;;;;4936743;29;20118;-58
2022/06/06 03:58:55;;;;;;;7.82;2.70;;;21.70;52.80;;;;;;4921115;29;20116;-56
2022/06/06 04:01:22;;;;;;;4.40;2.40;;;21.70;52.70;;;;;;4950534;28;20040;-58
2022/06/06 04:03:49;;;;;;;3.38;2.30;;;21.70;52.60;;;;;;5032945;28;20101;-60
2022/06/06 04:06:15;;;;;;;3.45;2.35;;;21.70;52.60;;;;;;5032673;28;20018;-57
2022/06/06 04:08:42;;;;;;;4.32;2.20;;;21.70;52.40;;;;;;5035326;28;20077;-59
2022/06/06 04:11:30;;;;;;;3.60;2.00;;;21.70;52.40;;;;;;5039347;28;20144;-58
2022/06/06 04:14:34;;;;;;;4.40;1.92;;;21.70;52.40;;;;;;5023882;28;20041;-58
2022/06/06 04:17:16;;;;;;;3.78;2.05;;;21.70;52.30;;;;;;5018502;28;20030;-58
2022/06/06 04:20:20;;;;;;;6.15;2.30;;;21.70;52.20;;;;;;5003134;28;20042;-59
2022/06/06 04:23:00;;;;;;;2.85;1.90;;;21.60;52.10;;;;;;4983817;28;20058;-58
2022/06/06 04:25:36;;;;;;;5.72;2.00;;;21.60;52.10;;;;;;5016275;28;20026;-58
2022/06/06 04:28:27;;;;;;;2.78;1.75;;;21.60;52.00;;;;;;5000632;28;20045;-59
2022/06/06 04:31:15;;;;;;;7.07;1.90;;;21.60;51.90;;;;;;5002487;28;20029;-58
2022/06/06 04:33:44;;;;;;;5.32;1.88;;;21.60;51.90;;;;;;5015792;28;20033;-56
2022/06/06 04:36:11;;;;;;;4.80;1.85;;;21.60;51.90;;;;;;5015213;28;20030;-58
2022/06/06 04:38:56;;;;;;;2.53;1.60;;;21.60;51.80;;;;;;5014959;28;20053;-58
2022/06/06 04:41:22;;;;;;;4.60;1.88;;;21.60;51.80;;;;;;4998693;28;20124;-56
2022/06/06 04:43:59;;;;;;;3.53;1.50;;;21.70;51.70;;;;;;5013570;28;20033;-58
2022/06/06 04:46:40;;;;;;;3.97;1.77;;;21.60;51.60;;;;;;5013482;28;20034;-57
2022/06/06 04:49:06;;;;;;;6.82;2.22;;;21.60;51.70;;;;;;4997147;28;20038;-60
2022/06/06 04:51:32;;;;;;;2.83;1.35;;;21.60;51.60;;;;;;5018695;28;20041;-57
2022/06/06 04:53:57;;;;;;;4.15;1.48;;;21.70;51.70;;;;;;5078678;28;20019;-59
2022/06/06 04:56:24;;;;;;;2.97;1.67;;;21.60;51.50;;;;;;5099036;28;20045;-60
2022/06/06 04:58:52;;;;;;;3.60;1.50;;;21.60;51.50;;;;;;5098241;28;20051;-56
2022/06/06 05:01:18;;;;;;;3.40;1.60;;;21.60;51.60;;;;;;5097080;28;20032;-59
2022/06/06 05:03:44;;;;;;;4.55;1.60;;;21.60;51.50;;;;;;5078508;28;20493;-55
2022/06/06 05:06:19;;;;;;;3.22;1.58;;;21.60;51.40;;;;;;5077894;28;20131;-54
2022/06/06 05:09:14;;;;;;;3.28;1.55;;;21.70;51.50;;;;;;5095380;28;20013;-54
2022/06/06 05:12:34;;;;;;;2.33;1.40;;;21.70;51.50;;;;;;5093938;28;20012;-57
2022/06/06 05:15:21;;;;;;;3.22;1.55;;;21.70;51.60;;;;;;4974643;28;20038;-54
2022/06/06 05:18:08;;;;;;;2.85;1.60;;;21.70;51.50;;;;;;5012257;28;20034;-55
2022/06/06 05:20:47;;;;;;;2.72;1.70;;;21.60;51.60;;;;;;5011893;28;20121;-57
2022/06/06 05:23:33;;;;;;;7.45;1.42;;;21.60;51.70;;;;;;4995793;28;20038;-55
2022/06/06 05:26:04;;;;;;;3.60;1.60;;;21.60;51.70;;;;;;4999175;28;20433;-55
2022/06/06 05:28:48;;;;;;;4.50;1.30;;;21.60;51.70;;;;;;5014936;28;20018;-56
2022/06/06 05:31:58;;;;;;;3.35;1.23;;;21.60;51.70;;;;;;5015242;28;20045;-55
2022/06/06 05:34:32;;;;;;;4.43;1.63;;;21.60;51.70;;;;;;4938004;29;20031;-55
2022/06/06 05:37:04;;;;;;;3.80;1.45;;;21.60;51.70;;;;;;4922151;29;20041;-58
2022/06/06 05:40:01;;;;;;;4.20;1.50;;;21.60;51.60;;;;;;4922293;29;20024;-52
2022/06/06 05:42:54;;;;;;;4.40;1.70;;;21.60;51.70;;;;;;4934447;29;20565;-53
2022/06/06 05:45:32;;;;;;;2.63;1.25;;;21.60;51.70;;;;;;4919048;29;20019;-58
2022/06/06 05:48:56;;;;;;;5.18;1.60;;;21.60;51.70;;;;;;4919638;29;20020;-57
2022/06/06 05:51:46;;;;;;;5.30;1.55;;;21.60;51.70;;;;;;4904445;29;20055;-56
2022/06/06 05:54:36;;;;;;;3.30;1.42;;;21.60;51.70;;;;;;4900454;29;20114;-54
2022/06/06 05:57:13;;;;;;;3.65;1.27;;;21.60;51.70;;;;;;4885144;29;20036;-56
2022/06/06 06:00:19;;;;;;;3.95;1.20;;;21.50;51.70;;;;;;4915195;29;20024;-54
2022/06/06 06:02:56;;;;;;;2.10;0.90;;;21.50;51.70;;;;;;4900799;29;20055;-55
2022/06/06 06:05:28;;;;;;;4.10;1.17;;;21.50;51.70;;;;;;4919508;29;20092;-55
2022/06/06 06:08:09;;;;;;;3.63;1.00;;;21.50;51.60;;;;;;4919823;29;20052;-56
2022/06/06 06:10:50;;;;;;;3.65;0.90;;;21.50;51.50;;;;;;4976925;28;20042;-54
2022/06/06 06:13:28;;;;;;;1.35;0.75;;;21.50;51.50;;;;;;4996682;28;20022;-56
2022/06/06 06:15:55;;;;;;;2.22;1.05;;;21.60;51.40;;;;;;4980432;28;20026;-57
2022/06/06 06:18:24;;;;;;;1.95;1.10;;;21.60;51.30;;;;;;4980627;28;20598;-54
2022/06/06 06:20:53;;;;;;;2.77;1.00;;;21.60;51.30;;;;;;4980799;28;20101;-59
2022/06/06 06:23:23;;;;;;;2.10;0.90;;;21.60;51.30;;;;;;4996837;28;20165;-55
2022/06/06 06:25:49;;;;;;;2.45;1.00;;;21.60;51.30;;;;;;4996837;28;20022;-57
2022/06/06 06:28:16;;;;;;;2.85;1.20;;;21.70;51.20;;;;;;5074250;28;20032;-61
2022/06/06 06:30:59;;;;;;;2.90;1.05;;;21.70;51.20;;;;;;5080634;28;20043;-57
2022/06/06 06:33:33;;;;;;;2.15;1.10;;;21.70;51.70;;;;;;5082549;28;20020;-54
2022/06/06 06:36:14;;;;;;;3.72;1.13;;;21.60;51.20;;;;;;5098201;28;20028;-57
2022/06/06 06:38:51;;;;;;;1.98;0.90;;;21.60;51.20;;;;;;5080753;28;20025;-58
2022/06/06 06:41:52;;;;;;;2.20;0.90;;;21.60;51.20;;;;;;5080779;28;20047;-52
2022/06/06 06:44:22;;;;;;;2.45;1.00;;;21.70;51.20;;;;;;4995480;28;20023;-57
2022/06/06 06:46:51;;;;;;;2.35;1.00;;;21.60;51.10;;;;;;4980029;28;20039;-59
2022/06/06 06:49:26;;;;;;;1.20;0.80;;;21.60;51.20;;;;;;4995608;28;20014;-60
2022/06/06 06:52:29;;;;;;;1.67;0.90;;;21.60;51.20;;;;;;4995644;28;20034;-57
2022/06/06 06:55:12;;;;;;;3.22;1.10;;;21.60;51.30;;;;;;4982926;28;20186;-58
2022/06/06 06:57:41;;;;;;;3.08;1.08;;;21.50;51.40;;;;;;4983619;28;20011;-58
2022/06/06 07:00:10;;;;;;;1.55;0.77;;;21.50;51.50;;;;;;4999165;28;20499;-54
2022/06/06 07:09:38;;;;;;;2.78;0.80;;;21.60;51.40;;;;;;5018197;28;20559;-57
2022/06/06 07:12:13;;;;;;;4.07;1.00;;;21.60;51.50;;;;;;5017080;28;20052;-62
2022/06/06 07:14:45;;;;;;;4.88;1.25;;;21.50;51.50;;;;;;5015578;28;20026;-56
2022/06/06 07:17:11;;;;;;;3.63;1.00;;;21.60;51.50;;;;;;5019628;28;20018;-57
2022/06/06 07:19:43;;;;;;;2.55;1.00;;;21.50;51.40;;;;;;5097908;28;20012;-59
2022/06/06 07:22:08;;;;;;;5.18;1.00;;;21.50;51.50;;;;;;5097666;28;20055;-60
2022/06/06 07:24:34;;;;;;;2.80;0.90;;;21.50;51.40;;;;;;5060975;28;20012;-54
2022/06/06 07:27:00;;;;;;;4.47;0.95;;;21.50;51.30;;;;;;5043831;28;20482;-52
2022/06/06 07:29:26;;;;;;;2.70;1.13;;;21.60;51.20;;;;;;5095525;28;20008;-55
2022/06/06 07:32:15;;;;;;;3.08;0.90;;;21.60;51.10;;;;;;5077249;28;20471;-54
2022/06/06 07:35:08;;;;;;;2.85;0.90;;;21.60;51.00;;;;;;5095201;28;20074;-57
2022/06/06 07:37:37;;;;;;;4.57;1.00;;;21.60;50.90;;;;;;5076978;28;20082;-55
2022/06/06 07:40:32;;;;;;;2.38;0.90;;;21.70;51.00;;;;;;5094934;28;20067;-53
2022/06/06 07:43:20;;;;;;;3.72;0.90;;;21.60;50.80;;;;;;5095065;28;20095;-55
2022/06/06 07:45:47;;;;;;;1.98;0.90;;;21.50;50.80;;;;;;5095344;28;20031;-53
2022/06/06 07:48:43;;;;;;;1.73;0.73;;;21.50;50.90;;;;;;5095123;28;20459;-54
2022/06/06 07:51:19;;;;;;;2.03;0.82;;;21.60;50.80;;;;;;5083942;28;20044;-54
2022/06/06 07:54:17;;;;;;;3.30;1.10;;;21.60;50.80;;;;;;5094895;28;20066;-54
2022/06/06 07:57:00;;;;;;;3.55;1.35;;;21.60;50.70;;;;;;5077230;28;20020;-53
2022/06/06 07:59:48;;;;;;;2.50;0.90;;;21.50;50.70;;;;;;5076799;28;20162;-54
2022/06/06 08:02:32;;;;;;;2.13;1.08;;;21.60;50.60;;;;;;5095196;28;20039;-52
2022/06/06 08:05:19;;;;;;;3.13;1.15;;;21.50;50.50;;;;;;5094754;28;20035;-55
2022/06/06 08:07:57;;;;;;;2.40;1.02;;;21.50;50.60;;;;;;5095436;28;20023;-56
2022/06/06 08:10:34;;;;;;;3.00;0.95;;;21.50;50.60;;;;;;5097942;28;20016;-53
2022/06/06 08:13:19;;;;;;;2.70;1.20;;;21.50;50.50;;;;;;5081329;28;20102;-60
2022/06/06 08:15:51;;;;;;;1.67;1.00;;;21.50;50.40;;;;;;5102133;28;20758;-59
2022/06/06 08:18:30;;;;;;;4.78;0.85;;;21.50;50.50;;;;;;5100389;28;20016;-58
2022/06/06 08:21:03;;;;;;;3.35;0.95;;;21.60;50.50;;;;;;5099017;28;20028;-59
2022/06/06 08:23:31;;;;;;;2.25;0.77;;;21.60;50.40;;;;;;5062024;28;20035;-57
2022/06/06 08:25:58;;;;;;;1.52;0.70;;;21.60;50.40;;;;;;5079134;28;20008;-57
2022/06/06 08:28:24;;;;;;;2.85;0.80;;;21.60;50.30;;;;;;5062076;28;20012;-53
2022/06/06 08:30:51;;;;;;;2.30;0.73;;;21.60;50.40;;;;;;5078995;28;20024;-57
2022/06/06 08:33:17;;;;;;;3.55;0.88;;;21.60;50.40;;;;;;5096661;28;20094;-59
2022/06/06 08:35:53;;;;;;;5.43;1.10;;;21.60;50.50;;;;;;5096185;28;20052;-57
2022/06/06 08:38:25;;;;;;;3.05;1.20;;;21.60;50.40;;;;;;5078054;28;20039;-58
2022/06/06 08:41:20;;;;;;;3.38;0.95;;;21.60;50.50;;;;;;5097514;28;20032;-57
2022/06/06 08:44:01;;;;;;;2.65;0.93;;;21.60;50.40;;;;;;5063246;28;20016;-57
2022/06/06 08:46:50;;;;;;;1.88;0.93;;;21.60;50.30;;;;;;5096608;28;20099;-53
2022/06/06 08:53:03;;;;;;;1.38;0.75;;;21.60;50.20;;;;;;5096983;28;20398;-57
2022/06/06 08:55:53;;;;;;;1.83;0.80;;;21.60;50.10;;;;;;5094180;28;20035;-56
2022/06/06 08:58:56;;;;;;;2.70;0.77;;;21.50;50.20;;;;;;5094350;28;20008;-54
2022/06/06 09:01:29;;;;;;;2.25;0.88;;;21.60;50.10;;;;;;5094169;28;20055;-56
2022/06/06 09:04:23;;;;;;;2.05;0.98;;;21.50;50.20;;;;;;5075998;28;20497;-55
2022/06/06 09:07:11;;;;;;;2.30;0.93;;;21.30;50.20;;;;;;5093950;28;20043;-55
2022/06/06 09:09:50;;;;;;;3.95;0.80;;;21.30;50.50;;;;;;5093840;28;20024;-56
2022/06/06 09:12:26;;;;;;;3.42;1.05;;;21.40;50.30;;;;;;5093713;28;20062;-55
2022/06/06 09:15:00;;;;;;;3.17;0.70;;;21.50;50.10;;;;;;5093514;28;20020;-56
2022/06/06 09:18:00;;;;;;;2.20;1.00;;;21.50;49.90;;;;;;5093291;28;20032;-55
2022/06/06 09:20:31;;;;;;;3.30;0.90;;;21.50;49.80;;;;;;5075543;28;20032;-56
2022/06/06 09:23:10;;;;;;;4.50;1.02;;;21.60;50.00;;;;;;5093283;28;20040;-57
2022/06/06 09:26:03;;;;;;;2.65;0.70;;;21.60;49.90;;;;;;5093424;28;20061;-56
2022/06/06 09:28:50;;;;;;;3.65;0.85;;;21.60;49.80;;;;;;5093739;28;20012;-55
2022/06/06 09:31:31;;;;;;;4.95;1.08;;;21.60;49.60;;;;;;5093494;28;20020;-56
2022/06/06 09:34:09;;;;;;;4.65;0.82;;;21.60;49.80;;;;;;5075733;28;20083;-56
2022/06/06 09:36:44;;;;;;;3.72;1.05;;;21.60;49.80;;;;;;5093394;28;20020;-55
2022/06/06 09:39:33;;;;;;;2.10;0.88;;;21.60;49.70;;;;;;5093345;28;20020;-55
2022/06/06 09:42:17;;;;;;;5.22;1.23;;;21.70;49.60;;;;;;5093467;28;20012;-55
2022/06/06 09:45:05;;;;;;;1.85;0.68;;;21.70;49.50;;;;;;5093662;28;20041;-56
2022/06/06 09:47:59;;;;;;;3.20;1.08;;;21.70;49.50;;;;;;5093204;28;20020;-55
2022/06/06 09:50:55;;;;;;;1.95;0.90;;;21.70;49.40;;;;;;5093458;28;20053;-55
2022/06/06 09:53:27;;;;;;;2.92;0.90;;;21.70;49.40;;;;;;5095067;28;20039;-53
2022/06/06 09:59:49;;;;;;;5.20;0.80;;;21.70;49.30;;;;;;4995879;28;20134;-53
2022/06/06 10:02:32;;;;;;;2.20;0.93;;;21.70;49.30;;;;;;4995274;28;20034;-54
2022/06/06 10:05:34;;;;;;;1.55;0.82;;;21.60;49.30;;;;;;4995116;28;20109;-55
2022/06/06 10:08:32;;;;;;;3.67;0.93;;;21.50;49.40;;;;;;5001449;28;20022;-57
2022/06/06 10:11:23;;;;;;;1.92;0.90;;;21.60;49.30;;;;;;4999647;28;20072;-56
2022/06/06 10:14:11;;;;;;;2.05;0.70;;;21.70;49.30;;;;;;4997386;28;20017;-57
2022/06/06 10:16:58;;;;;;;2.15;0.68;;;21.70;49.20;;;;;;5013418;28;20037;-51
2022/06/06 10:19:48;;;;;;;3.35;0.98;;;21.70;49.00;;;;;;5014489;28;20021;-56
2022/06/06 10:22:24;;;;;;;2.25;0.85;;;21.70;49.00;;;;;;5001316;28;20042;-57
2022/06/06 10:25:11;;;;;;;1.75;0.60;;;21.70;49.00;;;;;;4994248;28;20053;-54
2022/06/06 10:27:48;;;;;;;2.83;0.90;;;21.70;49.00;;;;;;5010695;28;20018;-56
2022/06/06 10:30:22;;;;;;;2.00;0.80;;;21.60;49.20;;;;;;4994317;28;20064;-55
2022/06/06 10:33:23;;;;;;;3.25;0.60;;;21.60;49.30;;;;;;4994690;28;20032;-56
2022/06/06 10:35:51;;;;;;;3.00;0.63;;;21.60;49.20;;;;;;5042522;28;20070;-56
2022/06/06 10:38:45;;;;;;;3.90;0.98;;;21.60;49.20;;;;;;5092592;28;20048;-54
2022/06/06 10:41:16;;;;;;;1.92;0.60;;;21.70;49.20;;;;;;5092260;28;20040;-53
2022/06/06 10:43:56;;;;;;;3.00;0.63;;;21.70;49.20;;;;;;5092428;28;20098;-53
2022/06/06 10:47:13;;;;;;;2.78;0.95;;;21.80;49.00;;;;;;5059455;28;20069;-54
2022/06/06 10:49:59;;;;;;;1.95;0.57;;;21.80;49.00;;;;;;5052764;28;20067;-57
2022/06/06 10:52:44;;;;;;;2.63;0.75;;;21.80;48.90;;;;;;5078270;28;20019;-53
2022/06/06 10:55:38;;;;;;;2.25;0.70;;;21.80;49.00;;;;;;5096052;28;20031;-54
2022/06/06 10:58:13;;;;;;;1.35;0.52;;;21.80;49.10;;;;;;5077976;28;20066;-54
2022/06/06 11:01:15;;;;;;;2.00;0.70;;;21.70;49.20;;;;;;5095961;28;20043;-54
2022/06/06 11:04:10;;;;;;;2.58;1.10;;;21.70;49.00;;;;;;5077875;28;20062;-54
2022/06/06 11:06:57;;;;;;;1.10;0.63;;;21.70;49.10;;;;;;5048750;28;20028;-52
2022/06/06 11:09:26;;;;;;;1.25;0.60;;;21.70;49.20;;;;;;5096066;28;20012;-52
2022/06/06 11:12:29;;;;;;;5.50;0.80;;;21.70;49.20;;;;;;5096230;28;20154;-49
2022/06/06 11:14:55;;;;;;;2.47;0.88;;;21.70;49.30;;;;;;5096361;28;20017;-56
2022/06/06 11:18:12;;;;;;;2.38;0.68;;;21.60;49.40;;;;;;5078086;28;20093;-52
2022/06/06 11:20:55;;;;;;;1.50;0.70;;;21.60;49.40;;;;;;5041904;28;20044;-54
2022/06/06 11:23:26;;;;;;;1.70;0.60;;;21.60;49.60;;;;;;5096029;28;20564;-49
2022/06/06 11:26:04;;;;;;;2.33;0.95;;;21.60;49.60;;;;;;5096212;28;20104;-51
2022/06/06 11:28:36;;;;;;;3.00;0.90;;;21.60;49.50;;;;;;5096017;28;20059;-57
2022/06/06 11:31:24;;;;;;;1.95;0.75;;;21.60;49.50;;;;;;5077706;28;20031;-56
2022/06/06 11:34:18;;;;;;;3.42;0.80;;;21.60;49.50;;;;;;5096125;28;20146;-52
2022/06/06 11:37:15;;;;;;;3.20;0.80;;;21.60;49.40;;;;;;5095922;28;20023;-50
2022/06/06 11:40:17;;;;;;;1.35;0.60;;;21.50;49.70;;;;;;5095334;28;20540;-49
2022/06/06 11:42:52;;;;;;;1.95;0.73;;;21.60;49.60;;;;;;5079695;28;20016;-49
2022/06/06 11:45:42;;;;;;;3.15;0.68;;;21.70;49.50;;;;;;5095410;28;20012;-54
2022/06/06 11:48:08;;;;;;;1.77;0.50;;;21.60;49.40;;;;;;5095188;28;20035;-51
2022/06/06 11:50:57;;;;;;;3.08;1.27;;;21.70;49.40;;;;;;5095170;28;20020;-52
2022/06/06 11:53:41;;;;;;;3.95;0.90;;;21.70;49.30;;;;;;5078318;28;20016;-50
2022/06/06 11:56:32;;;;;;;2.05;0.85;;;21.70;49.30;;;;;;5095194;28;20028;-57
2022/06/06 11:59:28;;;;;;;3.25;1.00;;;21.70;49.30;;;;;;5079414;28;20459;-54
2022/06/06 12:02:04;;;;;;;4.45;1.13;;;21.70;49.40;;;;;;5093847;28;20036;-50
2022/06/06 12:04:51;;;;;;;3.50;0.80;;;21.70;49.40;;;;;;5095156;28;20019;-51
2022/06/06 12:08:01;;;;;;;2.95;0.88;;;21.60;49.40;;;;;;5094638;28;20081;-50
2022/06/06 12:10:32;;;;;;;1.60;0.52;;;21.60;49.40;;;;;;4993493;28;20030;-55
2022/06/06 12:13:18;;;;;;;1.70;0.50;;;21.70;49.40;;;;;;4994363;28;20030;-51
2022/06/06 12:16:05;;;;;;;3.75;0.90;;;21.70;49.40;;;;;;4994262;28;20037;-54
2022/06/06 12:19:00;;;;;;;2.40;0.80;;;21.70;49.30;;;;;;4994480;28;20034;-55
2022/06/06 12:21:53;;;;;;;1.95;0.70;;;21.80;49.40;;;;;;4978576;28;20053;-55
2022/06/06 12:24:57;;;;;;;3.38;0.73;;;21.80;49.30;;;;;;4993350;28;20086;-52
2022/06/06 12:27:23;;;;;;;1.92;0.68;;;21.80;49.30;;;;;;4989894;28;20034;-50
2022/06/06 12:30:13;;;;;;;4.38;1.10;;;21.80;49.30;;;;;;4993615;28;20053;-49
2022/06/06 12:32:48;;;;;;;1.80;0.60;;;21.80;49.30;;;;;;4976900;28;20033;-49
2022/06/06 12:35:35;;;;;;;1.23;0.60;;;21.80;49.30;;;;;;4960925;28;20025;-49
2022/06/06 12:38:13;;;;;;;3.08;0.80;;;21.80;49.40;;;;;;4976513;28;20034;-51
2022/06/06 12:40:47;;;;;;;2.58;0.90;;;21.80;49.40;;;;;;4993084;28;20477;-51
2022/06/06 12:43:17;;;;;;;1.88;0.82;;;21.80;49.30;;;;;;4999461;28;20022;-49
2022/06/06 12:46:23;;;;;;;5.13;1.10;;;21.80;49.40;;;;;;5094534;28;20012;-50
2022/06/06 12:48:53;;;;;;;1.70;0.70;;;21.70;49.50;;;;;;5094027;28;20063;-50
2022/06/06 12:51:26;;;;;;;2.50;0.90;;;21.80;49.40;;;;;;5076503;28;20023;-49
2022/06/06 12:54:11;;;;;;;2.67;0.70;;;21.70;49.30;;;;;;5095357;28;20105;-53
2022/06/06 12:56:55;;;;;;;2.03;0.70;;;21.70;49.40;;;;;;5095076;28;20474;-55
2022/06/06 13:00:08;;;;;;;1.83;0.70;;;21.80;49.20;;;;;;5094455;28;20032;-52
2022/06/06 13:02:58;;;;;;;4.38;0.90;;;21.70;49.20;;;;;;5095428;28;20026;-56
2022/06/06 13:05:49;;;;;;;5.60;0.80;;;21.70;49.20;;;;;;5061353;28;20019;-55
2022/06/06 13:09:00;;;;;;;2.25;0.70;;;21.70;49.20;;;;;;5079478;28;20004;-55
2022/06/06 13:11:50;;;;;;;2.40;0.98;;;21.60;49.30;;;;;;5064697;28;20086;-55
2022/06/06 13:15:09;;;;;;;1.35;0.70;;;21.70;49.10;;;;;;5075500;28;20356;-56
2022/06/06 13:17:45;;;;;;;2.35;0.68;;;21.70;48.90;;;;;;4985217;28;20022;-55
2022/06/06 13:20:27;;;;;;;2.08;0.73;;;21.60;48.80;;;;;;4976019;28;20049;-53
2022/06/06 13:23:25;;;;;;;2.38;0.82;;;21.70;48.70;;;;;;4976306;28;20525;-51
2022/06/06 13:26:35;;;;;;;2.13;0.85;;;21.70;48.50;;;;;;4950240;28;20092;-54
2022/06/06 13:29:01;;;;;;;3.22;0.60;;;21.80;48.30;;;;;;4976525;28;20015;-57
2022/06/06 13:31:37;;;;;;;1.70;0.82;;;21.90;48.10;;;;;;4975876;28;20444;-50
2022/06/06 13:34:24;;;;;;;1.88;0.75;;;21.90;48.20;;;;;;4991659;28;20493;-52
2022/06/06 13:37:11;;;;;;;4.63;1.23;;;21.80;48.20;;;;;;4975415;28;20034;-52
2022/06/06 13:40:07;;;;;;;2.83;0.60;;;21.80;48.30;;;;;;4992241;28;20023;-50
2022/06/06 13:43:01;;;;;;;1.52;0.70;;;21.80;48.30;;;;;;4992503;28;20018;-54
2022/06/06 13:45:39;;;;;;;2.63;0.80;;;21.80;48.40;;;;;;4992464;28;20109;-54
2022/06/06 13:48:18;;;;;;;3.60;0.70;;;21.80;48.40;;;;;;4991933;28;20011;-53
2022/06/06 13:51:19;;;;;;;1.90;0.85;;;21.80;48.50;;;;;;4992778;28;20022;-57
2022/06/06 13:53:58;;;;;;;3.55;0.77;;;21.80;48.50;;;;;;5000625;28;20057;-51
2022/06/06 13:56:47;;;;;;;3.50;0.70;;;21.80;48.60;;;;;;4995850;28;20037;-55
2022/06/06 13:59:31;;;;;;;3.00;0.90;;;21.70;48.60;;;;;;5011536;28;20515;-56
2022/06/06 14:02:25;;;;;;;3.80;1.00;;;21.70;48.70;;;;;;4995185;28;20535;-53
2022/06/06 14:05:28;;;;;;;3.85;0.93;;;21.70;48.70;;;;;;4995684;28;20026;-54
2022/06/06 14:08:05;;;;;;;2.95;1.25;;;21.50;49.00;;;;;;5012015;28;20046;-56
2022/06/06 14:10:52;;;;;;;4.88;0.77;;;21.70;48.80;;;;;;5014301;28;20035;-57
2022/06/06 14:13:39;;;;;;;3.08;0.70;;;21.70;48.80;;;;;;5013453;28;20140;-54